Time;durP1;ratioP1;P1;durP2;ratioP2;P2;SDS_P1;SDS_P2;PMS_P1;PMS_P2;Temp;Humidity;BMP_temperature;BMP_pressure;BME280_temperature;BME280_humidity;BME280_pressure;Samples;Min_cycle;Max_cycle;Signal;HPM_P1;HPM_P2
2023/03/28 00:01:01;;;;;;;8.50;1.90;;;0.30;99.90;;;-0.74;100.00;98039.81;4986973;28;20042;-38
2023/03/28 00:03:28;;;;;;;4.80;1.80;;;0.20;99.90;;;-0.72;100.00;98045.03;4987210;28;20084;-38
2023/03/28 00:05:59;;;;;;;4.70;1.50;;;0.20;99.90;;;-0.74;100.00;98038.94;4987672;28;20037;-38
2023/03/28 00:08:27;;;;;;;5.90;1.65;;;0.20;99.90;;;-0.78;100.00;98038.03;4984351;28;20030;-38
2023/03/28 00:11:14;;;;;;;8.35;1.63;;;0.20;99.90;;;-0.84;100.00;98032.75;4987095;28;20129;-38
2023/03/28 00:13:40;;;;;;;7.90;2.00;;;0.20;99.90;;;-0.74;100.00;98045.00;4988896;28;20040;-38
2023/03/28 00:16:11;;;;;;;6.13;1.58;;;0.20;99.90;;;-0.72;100.00;98057.97;4990601;28;20030;-38
2023/03/28 00:18:37;;;;;;;4.20;1.60;;;0.20;99.90;;;-0.91;100.00;98034.34;4989010;28;20041;-38
2023/03/28 00:21:28;;;;;;;4.60;1.58;;;0.20;99.90;;;-0.69;100.00;98056.31;4984002;28;20057;-38
2023/03/28 00:24:00;;;;;;;4.45;1.63;;;0.20;99.90;;;-0.75;100.00;98053.63;4987539;28;20304;-38
2023/03/28 00:26:28;;;;;;;4.57;1.85;;;0.20;99.90;;;-0.67;100.00;98051.16;4989804;28;20038;-38
2023/03/28 00:28:55;;;;;;;6.80;1.67;;;0.20;99.90;;;-0.67;100.00;98062.41;4987072;28;20045;-38
2023/03/28 00:31:22;;;;;;;3.00;1.60;;;0.30;99.90;;;-0.72;100.00;98057.97;4992645;28;20030;-38
2023/03/28 00:33:48;;;;;;;5.13;1.40;;;0.20;99.90;;;-0.69;100.00;98073.59;4991993;28;20061;-38
2023/03/28 00:36:21;;;;;;;3.92;1.48;;;0.20;99.90;;;-0.72;100.00;98069.19;4986173;28;20032;-38
2023/03/28 00:38:52;;;;;;;6.07;1.70;;;0.20;99.90;;;-0.77;100.00;98070.88;4986880;28;20030;-38
2023/03/28 00:41:23;;;;;;;5.07;1.50;;;0.20;99.90;;;-0.90;100.00;98059.38;4990418;28;20030;-38
2023/03/28 00:43:52;;;;;;;6.95;1.77;;;0.20;99.90;;;-0.73;100.00;98069.22;4978312;28;20092;-38
2023/03/28 00:46:26;;;;;;;3.53;1.58;;;0.20;99.90;;;-0.71;100.00;98078.72;4981760;28;20030;-38
2023/03/28 00:49:11;;;;;;;2.67;1.70;;;0.20;99.90;;;-0.73;100.00;98076.97;4972099;28;20898;-38
2023/03/28 00:51:49;;;;;;;3.50;1.52;;;0.20;99.90;;;-0.69;100.00;98079.63;4981189;28;20526;-38
2023/03/28 00:54:18;;;;;;;4.63;1.70;;;0.20;99.90;;;-0.67;100.00;98077.94;4964348;28;20109;-38
2023/03/28 00:56:48;;;;;;;3.60;1.48;;;0.20;99.90;;;-0.69;100.00;98076.19;4973704;28;20041;-38
2023/03/28 00:59:19;;;;;;;2.78;1.50;;;0.20;99.90;;;-0.74;100.00;98082.97;4973400;28;20034;-38
2023/03/28 01:01:46;;;;;;;3.10;1.80;;;0.20;99.90;;;-0.75;100.00;98079.53;4969250;28;20034;-38
2023/03/28 01:04:18;;;;;;;7.97;1.67;;;0.20;99.90;;;-0.83;100.00;98084.53;4984043;28;20116;-38
2023/03/28 01:06:47;;;;;;;4.45;1.48;;;0.20;99.90;;;-0.88;100.00;98088.78;4967364;28;20040;-38
2023/03/28 01:09:15;;;;;;;4.25;1.40;;;0.20;99.90;;;-0.87;100.00;98092.25;4989677;28;20507;-37
2023/03/28 01:11:44;;;;;;;4.35;1.25;;;0.10;99.90;;;-0.91;100.00;98087.84;4990229;28;20393;-38
2023/03/28 01:14:14;;;;;;;3.28;1.58;;;0.10;99.90;;;-0.97;100.00;98075.63;4973323;28;20433;-37
2023/03/28 01:16:40;;;;;;;4.28;1.27;;;0.10;99.90;;;-0.98;100.00;98076.50;4984531;28;20034;-38
2023/03/28 01:19:25;;;;;;;8.38;1.67;;;0.10;99.90;;;-1.01;100.00;98077.28;4982776;28;20432;-38
2023/03/28 01:22:25;;;;;;;5.30;2.30;;;0.00;99.90;;;-1.18;100.00;98056.25;4966932;28;20061;-38
2023/03/28 01:25:35;;;;;;;6.35;1.60;;;0.00;99.90;;;-1.08;100.00;98080.59;4971325;28;20097;-38
2023/03/28 01:28:25;;;;;;;2.75;1.30;;;0.00;99.90;;;-1.05;100.00;98083.25;4971722;28;20084;-38
2023/03/28 01:31:36;;;;;;;2.30;1.25;;;-0.10;99.90;;;-1.05;100.00;98083.25;4984828;28;20062;-38
2023/03/28 01:34:35;;;;;;;4.53;1.40;;;0.00;99.90;;;-1.03;100.00;98078.13;4981660;28;20121;-38
2023/03/28 01:37:24;;;;;;;3.38;1.42;;;0.00;99.90;;;-1.02;100.00;98085.91;4988717;28;20030;-38
2023/03/28 01:40:12;;;;;;;5.07;1.70;;;0.00;99.90;;;-1.01;100.00;98099.72;4975093;28;20026;-38
2023/03/28 01:43:00;;;;;;;2.70;1.30;;;-0.10;99.90;;;-1.06;100.00;98098.75;4968299;28;20080;-38
2023/03/28 01:45:56;;;;;;;6.30;1.40;;;-0.10;99.90;;;-1.07;100.00;98097.03;4964066;28;20042;-38
2023/03/28 01:49:25;;;;;;;2.80;1.35;;;-0.10;99.90;;;-1.10;100.00;98096.97;4969693;28;20048;-38
2023/03/28 01:52:16;;;;;;;3.45;1.85;;;-0.10;99.90;;;-1.11;100.00;98097.78;4968365;28;20042;-38
2023/03/28 01:54:51;;;;;;;3.78;1.67;;;-0.10;99.90;;;-1.19;100.00;98098.50;4961914;28;20057;-38
2023/03/28 01:57:51;;;;;;;4.28;1.38;;;-0.10;99.90;;;-1.24;100.00;98096.66;4987179;28;20037;-38
2023/03/28 02:00:32;;;;;;;4.63;1.95;;;-0.20;99.90;;;-1.31;100.00;98097.38;4967409;28;20029;-38
2023/03/28 02:03:13;;;;;;;3.97;2.05;;;-0.20;99.90;;;-1.18;100.00;98102.00;4968217;28;20038;-38
2023/03/28 02:05:43;;;;;;;3.28;1.65;;;-0.20;99.90;;;-1.31;100.00;98089.63;4965698;28;20132;-38
2023/03/28 02:08:11;;;;;;;5.32;1.80;;;-0.20;99.90;;;-1.24;100.00;98105.34;4973541;28;20026;-38
2023/03/28 02:10:40;;;;;;;4.13;1.50;;;-0.20;99.90;;;-1.29;100.00;98109.53;4972977;28;20169;-38
2023/03/28 02:13:32;;;;;;;4.93;2.10;;;-0.30;99.90;;;-1.33;100.00;98107.69;4973912;28;20667;-38
2023/03/28 02:16:00;;;;;;;3.47;1.63;;;-0.30;99.90;;;-1.27;100.00;98104.38;5016356;23;20052;-47
2023/03/28 02:18:33;;;;;;;4.30;1.88;;;-0.30;99.90;;;-1.34;100.00;98103.38;5027485;28;20025;-52
2023/03/28 02:21:06;;;;;;;3.70;1.63;;;-0.30;99.90;;;-1.35;100.00;98099.94;5019153;28;20043;-49
2023/03/28 02:23:53;;;;;;;3.03;1.60;;;-0.30;99.90;;;-1.31;100.00;98110.31;5032312;28;20037;-48
2023/03/28 02:26:21;;;;;;;5.63;1.88;;;-0.30;99.90;;;-1.33;100.00;98105.09;5023198;28;20024;-51
2023/03/28 02:28:51;;;;;;;8.48;2.38;;;-0.30;99.90;;;-1.34;100.00;98103.38;5021054;28;20037;-48
2023/03/28 02:31:20;;;;;;;6.43;1.80;;;-0.30;99.90;;;-1.39;100.00;98105.84;5018183;28;20021;-48
2023/03/28 02:33:49;;;;;;;2.30;1.55;;;-0.30;99.90;;;-1.39;100.00;98105.00;5019428;28;20055;-51
2023/03/28 02:36:42;;;;;;;8.30;2.05;;;-0.30;99.90;;;-1.51;100.00;98090.06;5030158;28;21333;-52
2023/03/28 02:39:29;;;;;;;4.13;1.73;;;-0.40;99.90;;;-1.45;100.00;98110.91;5043253;28;20523;-51
2023/03/28 02:42:36;;;;;;;5.53;1.92;;;-0.40;99.90;;;-1.46;100.00;98101.38;5021179;28;20041;-51
2023/03/28 02:45:23;;;;;;;4.90;1.85;;;-0.40;99.90;;;-1.55;100.00;98098.59;4984484;28;20129;-52
2023/03/28 02:48:14;;;;;;;4.45;1.73;;;-0.50;99.90;;;-1.55;100.00;98098.59;5026392;28;20186;-51
2023/03/28 02:50:58;;;;;;;6.30;2.22;;;-0.50;99.90;;;-1.57;100.00;98085.63;5034472;28;20036;-53
2023/03/28 02:54:08;;;;;;;5.75;2.38;;;-0.50;99.90;;;-1.57;100.00;98090.81;5025988;28;20586;-52
2023/03/28 02:56:49;;;;;;;5.80;1.98;;;-0.50;99.90;;;-1.57;100.00;98092.53;5022876;28;20387;-49
2023/03/28 02:59:24;;;;;;;6.05;2.17;;;-0.50;99.90;;;-1.48;100.00;98102.22;5022362;28;20044;-52
2023/03/28 03:01:50;;;;;;;5.82;1.98;;;-0.50;99.90;;;-1.44;100.00;98104.88;5022247;28;20029;-51
2023/03/28 03:04:16;;;;;;;3.17;2.00;;;-0.40;99.90;;;-1.44;100.00;98101.44;5028749;28;20037;-51
2023/03/28 03:06:44;;;;;;;4.22;1.73;;;-0.40;99.90;;;-1.47;100.00;98099.66;5021860;28;20091;-53
2023/03/28 03:09:10;;;;;;;5.13;1.75;;;-0.40;99.90;;;-1.50;100.00;98094.41;5030412;28;20519;-51
2023/03/28 03:11:36;;;;;;;5.70;2.47;;;-0.40;99.90;;;-1.54;100.00;98101.22;5029833;28;20071;-51
2023/03/28 03:14:02;;;;;;;4.68;2.15;;;-0.50;99.90;;;-1.55;100.00;98099.47;5025368;28;20037;-51
2023/03/28 03:16:28;;;;;;;6.47;1.83;;;-0.50;99.90;;;-1.55;100.00;98099.47;5026041;28;20099;-52
2023/03/28 03:18:55;;;;;;;4.45;1.88;;;-0.50;99.90;;;-1.49;100.00;98097.84;5027622;28;20057;-51
2023/03/28 03:21:22;;;;;;;10.10;2.55;;;-0.50;99.90;;;-1.48;100.00;98094.44;5028207;28;20029;-51
2023/03/28 03:23:49;;;;;;;7.95;2.35;;;-0.50;99.90;;;-1.39;100.00;98105.84;5026098;28;20448;-51
2023/03/28 03:26:15;;;;;;;7.82;1.98;;;-0.40;99.90;;;-1.44;100.00;98104.88;5029010;28;20033;-52
2023/03/28 03:28:40;;;;;;;3.38;1.85;;;-0.40;99.90;;;-1.50;100.00;98103.88;5017723;28;20096;-50
2023/03/28 03:31:06;;;;;;;4.90;1.95;;;-0.40;99.90;;;-1.56;100.00;98108.09;5030053;28;20037;-50
2023/03/28 03:33:33;;;;;;;7.32;2.17;;;-0.50;99.90;;;-1.61;100.00;98101.06;5025665;28;20029;-52
2023/03/28 03:35:58;;;;;;;7.50;1.63;;;-0.50;99.90;;;-1.58;100.00;98103.69;5024051;28;20024;-51
2023/03/28 03:38:25;;;;;;;6.63;2.05;;;-0.50;99.90;;;-1.54;100.00;98102.94;5026554;28;20052;-51
2023/03/28 03:40:50;;;;;;;7.10;1.60;;;-0.50;99.90;;;-1.57;100.00;98100.28;5029250;28;20041;-51
2023/03/28 03:43:16;;;;;;;4.05;1.67;;;-0.50;99.90;;;-1.59;100.00;98096.78;5028168;28;20071;-49
2023/03/28 03:45:44;;;;;;;4.07;1.83;;;-0.50;99.90;;;-1.65;100.00;98100.13;5021737;28;20040;-50
2023/03/28 03:48:10;;;;;;;6.40;1.88;;;-0.50;99.90;;;-1.60;100.00;98098.53;5025162;28;20033;-50
2023/03/28 03:50:36;;;;;;;6.35;1.80;;;-0.50;99.90;;;-1.58;100.00;98107.19;5030357;28;20099;-48
2023/03/28 03:53:01;;;;;;;7.35;1.67;;;-0.50;99.90;;;-1.57;100.00;98105.47;5021799;28;20148;-49
2023/03/28 03:55:27;;;;;;;4.38;1.95;;;-0.50;99.90;;;-1.56;100.00;98104.63;5026300;28;20682;-49
2023/03/28 03:57:53;;;;;;;4.53;1.98;;;-0.50;99.90;;;-1.60;100.00;98098.53;5017341;28;20704;-48
2023/03/28 04:00:19;;;;;;;4.70;1.60;;;-0.50;99.90;;;-1.64;100.00;98095.81;5017921;28;20036;-47
2023/03/28 04:02:45;;;;;;;6.78;1.52;;;-0.50;99.90;;;-1.61;100.00;98101.06;5022043;28;20033;-49
2023/03/28 04:05:11;;;;;;;9.10;1.90;;;-0.50;99.90;;;-1.62;100.00;98096.72;5014874;28;20033;-48
2023/03/28 04:07:37;;;;;;;2.65;1.13;;;-0.60;99.90;;;-1.66;100.00;98100.09;5016752;28;20072;-52
2023/03/28 04:10:04;;;;;;;3.15;1.50;;;-0.60;99.90;;;-1.64;100.00;98103.56;5033936;28;20483;-49
2023/03/28 04:12:30;;;;;;;4.20;1.52;;;-0.60;99.90;;;-1.65;100.00;98100.13;5022139;28;20025;-48
2023/03/28 04:14:56;;;;;;;6.47;1.60;;;-0.60;99.90;;;-1.78;100.00;98088.59;5019338;28;20036;-50
2023/03/28 04:17:22;;;;;;;6.47;1.70;;;-0.60;99.90;;;-1.68;100.00;98099.19;5025916;28;20033;-48
2023/03/28 04:19:48;;;;;;;5.25;1.45;;;-0.60;99.90;;;-1.67;100.00;98095.75;5022943;28;20073;-49
2023/03/28 04:22:17;;;;;;;4.82;1.63;;;-0.60;99.90;;;-1.69;100.00;98105.19;5022219;28;20566;-49
2023/03/28 04:24:43;;;;;;;4.20;1.45;;;-0.60;99.90;;;-1.72;100.00;98111.16;5014321;28;20750;-53
2023/03/28 04:27:12;;;;;;;5.00;1.88;;;-0.70;99.90;;;-1.72;100.00;98111.16;5020151;28;20029;-50
2023/03/28 04:29:40;;;;;;;4.78;1.75;;;-0.70;99.90;;;-1.71;100.00;98119.78;5018043;28;20508;-48
2023/03/28 04:32:06;;;;;;;6.13;1.60;;;-0.70;99.90;;;-1.70;100.00;98124.16;5025959;28;20040;-48
2023/03/28 04:34:32;;;;;;;6.78;1.80;;;-0.70;99.90;;;-1.72;100.00;98131.84;5019291;28;20041;-50
2023/03/28 04:37:00;;;;;;;4.63;1.40;;;-0.70;99.90;;;-1.75;100.00;98137.81;5018868;28;20421;-51
2023/03/28 04:39:34;;;;;;;10.15;1.85;;;-0.70;99.90;;;-1.77;100.00;98138.63;5021662;28;20028;-49
2023/03/28 04:42:00;;;;;;;4.55;1.77;;;-0.70;99.90;;;-1.81;100.00;98131.63;5014993;28;20176;-50
2023/03/28 04:44:28;;;;;;;9.52;2.20;;;-0.70;99.90;;;-1.80;100.00;98136.81;5014993;28;20389;-50
2023/03/28 04:46:54;;;;;;;5.63;2.00;;;-0.70;99.90;;;-1.78;100.00;98139.44;5016417;28;20036;-50
2023/03/28 04:49:20;;;;;;;5.45;1.80;;;-0.70;99.90;;;-1.80;100.00;98147.16;5024522;28;20022;-50
2023/03/28 04:51:47;;;;;;;5.43;1.85;;;-0.70;99.90;;;-1.77;100.00;98144.66;5019158;28;20036;-50
2023/03/28 04:54:13;;;;;;;8.10;1.58;;;-0.70;99.90;;;-1.78;100.00;98150.66;5026225;28;20488;-50
2023/03/28 04:56:39;;;;;;;5.50;1.92;;;-0.70;99.90;;;-1.74;100.00;98144.75;5014475;28;20721;-49
2023/03/28 04:59:05;;;;;;;7.55;1.83;;;-0.60;99.90;;;-1.77;100.00;98146.38;5023084;28;20029;-48
2023/03/28 05:01:31;;;;;;;3.05;1.63;;;-0.60;99.90;;;-1.79;100.00;98146.34;5015856;28;20098;-48
2023/03/28 05:03:57;;;;;;;5.32;2.05;;;-0.70;99.90;;;-1.76;100.00;98151.59;5021416;28;20044;-52
2023/03/28 05:06:24;;;;;;;5.25;1.77;;;-0.70;99.90;;;-1.77;100.00;98149.84;5021710;28;20612;-49
2023/03/28 05:08:50;;;;;;;4.65;1.92;;;-0.70;99.90;;;-1.75;100.00;98157.63;5044333;28;20095;-47
2023/03/28 05:11:16;;;;;;;3.65;1.75;;;-0.70;99.90;;;-1.76;100.00;98154.19;5023922;28;20040;-47
2023/03/28 05:13:42;;;;;;;3.28;1.58;;;-0.80;99.90;;;-1.79;100.00;98154.09;5028376;28;20033;-48
2023/03/28 05:16:08;;;;;;;7.07;1.98;;;-0.80;99.90;;;-1.82;100.00;98161.78;5024203;28;20036;-48
2023/03/28 05:18:33;;;;;;;8.95;1.83;;;-0.80;99.90;;;-1.79;100.00;98154.09;5024750;28;20756;-52
2023/03/28 05:20:59;;;;;;;3.92;1.52;;;-0.80;99.90;;;-1.80;100.00;98160.09;5022601;28;20053;-50
2023/03/28 05:23:25;;;;;;;5.88;2.15;;;-0.80;99.90;;;-1.80;100.00;98164.41;5023438;28;20033;-52
2023/03/28 05:25:52;;;;;;;6.85;2.22;;;-0.80;99.90;;;-1.78;100.00;98165.31;5024359;28;20029;-50
2023/03/28 05:28:18;;;;;;;4.80;1.60;;;-0.80;99.90;;;-1.78;100.00;98163.59;5021427;28;20280;-50
2023/03/28 05:30:44;;;;;;;5.60;1.67;;;-0.80;99.90;;;-1.78;100.00;98179.09;5018699;28;20029;-49
2023/03/28 05:33:10;;;;;;;4.97;1.77;;;-0.80;99.90;;;-1.74;100.00;98168.03;5017813;28;20040;-50
2023/03/28 05:35:36;;;;;;;2.70;1.60;;;-0.80;99.90;;;-1.72;100.00;98178.41;5021358;28;20029;-48
2023/03/28 05:38:03;;;;;;;5.32;1.95;;;-0.80;99.90;;;-1.70;100.00;98181.91;5024306;28;20037;-47
2023/03/28 05:40:29;;;;;;;3.40;1.77;;;-0.70;99.90;;;-1.69;100.00;98187.94;5027411;28;20037;-50
2023/03/28 05:42:54;;;;;;;3.47;2.03;;;-0.70;99.90;;;-1.67;100.00;98187.16;5025044;28;20456;-48
2023/03/28 05:45:21;;;;;;;4.22;1.60;;;-0.70;99.90;;;-1.67;100.00;98182.00;5021284;28;20041;-52
2023/03/28 05:47:50;;;;;;;4.28;2.08;;;-0.60;99.90;;;-1.62;100.00;98193.28;5024446;28;20409;-48
2023/03/28 05:50:16;;;;;;;4.25;1.80;;;-0.60;99.90;;;-1.58;100.00;98189.97;5029970;28;20104;-47
2023/03/28 05:52:42;;;;;;;5.28;2.47;;;-0.60;99.90;;;-1.55;100.00;98196.91;5033187;28;20132;-50
2023/03/28 05:55:08;;;;;;;5.10;2.13;;;-0.50;99.90;;;-1.63;100.00;98177.75;5024490;28;20221;-49
2023/03/28 05:57:34;;;;;;;5.28;2.20;;;-0.50;99.90;;;-1.47;100.00;98190.22;5030352;28;20036;-52
2023/03/28 06:00:00;;;;;;;5.47;1.90;;;-0.40;99.90;;;-1.39;100.00;98192.97;5029124;28;20021;-47
2023/03/28 06:02:28;;;;;;;5.07;2.20;;;-0.40;99.90;;;-1.35;100.00;98197.38;5027432;28;20107;-52
2023/03/28 06:04:54;;;;;;;5.05;1.63;;;-0.30;99.90;;;-1.25;100.00;98199.34;5030319;28;20072;-51
2023/03/28 06:07:21;;;;;;;3.45;1.90;;;-0.30;99.90;;;-1.19;100.00;98203.78;5027140;28;20045;-52
2023/03/28 06:09:47;;;;;;;5.43;1.80;;;-0.20;99.90;;;-1.09;100.00;98204.88;5031666;28;20044;-50
2023/03/28 06:12:12;;;;;;;5.18;1.88;;;-0.10;99.90;;;-1.01;100.00;98214.53;5026699;28;20045;-54
2023/03/28 06:14:38;;;;;;;7.47;2.10;;;0.00;99.90;;;-0.88;100.00;98202.75;5036120;28;20028;-46
2023/03/28 06:17:04;;;;;;;6.45;1.88;;;0.10;99.90;;;-0.79;100.00;98207.22;5029636;28;20086;-51
2023/03/28 06:19:30;;;;;;;6.63;1.88;;;0.20;99.90;;;-0.71;100.00;98220.34;5036386;28;20037;-46
2023/03/28 06:21:55;;;;;;;7.40;2.10;;;0.30;99.90;;;-0.60;100.00;98222.28;5029223;28;20407;-48
2023/03/28 06:24:21;;;;;;;7.40;2.10;;;0.40;99.90;;;-0.50;100.00;98222.47;5032591;28;20106;-49
2023/03/28 06:26:47;;;;;;;5.22;2.20;;;0.50;99.90;;;-0.41;100.00;98226.16;5031527;28;20048;-48
2023/03/28 06:29:14;;;;;;;4.32;1.75;;;0.60;99.90;;;-0.34;100.00;98221.06;5031448;28;20106;-48
2023/03/28 06:31:40;;;;;;;5.53;1.90;;;0.60;99.90;;;-0.29;100.00;98227.22;5030936;28;20082;-48
2023/03/28 06:34:06;;;;;;;9.45;2.00;;;0.70;99.90;;;-0.19;100.00;98226.56;5026107;28;20552;-49
2023/03/28 06:36:32;;;;;;;5.20;2.10;;;0.80;99.90;;;-0.10;100.00;98231.91;5025756;28;21735;-48
2023/03/28 06:38:57;;;;;;;4.97;1.88;;;0.90;99.90;;;-0.02;100.00;98232.03;5028349;28;20047;-47
2023/03/28 06:41:23;;;;;;;6.07;2.20;;;1.00;99.90;;;0.11;100.00;98235.75;5022557;28;20044;-47
2023/03/28 06:43:49;;;;;;;5.93;1.65;;;1.10;99.90;;;0.16;100.00;98239.28;5022817;28;20091;-47
2023/03/28 06:46:15;;;;;;;2.53;1.38;;;1.20;99.90;;;0.23;100.00;98240.28;5021971;28;20034;-49
2023/03/28 06:48:41;;;;;;;7.88;2.08;;;1.20;99.90;;;0.32;100.00;98240.44;5022125;28;20079;-48
2023/03/28 06:51:07;;;;;;;8.68;2.28;;;1.30;99.90;;;0.35;100.00;98243.94;5024476;28;20036;-49
2023/03/28 06:53:34;;;;;;;5.00;2.15;;;1.30;99.90;;;0.43;100.00;98240.59;5024897;28;20033;-47
2023/03/28 06:56:01;;;;;;;5.43;1.77;;;1.40;99.90;;;0.51;100.00;98246.81;5026734;28;20064;-50
2023/03/28 06:58:26;;;;;;;6.82;1.90;;;1.50;99.90;;;0.61;100.00;98253.03;5024927;28;20360;-49
2023/03/28 07:00:52;;;;;;;7.97;1.83;;;1.50;99.90;;;0.63;100.00;98248.72;5023622;28;20104;-51
2023/03/28 07:03:18;;;;;;;10.10;1.90;;;1.60;99.90;;;0.69;100.00;98256.63;5022240;28;20045;-46
2023/03/28 07:05:44;;;;;;;8.77;2.22;;;1.70;99.90;;;0.75;100.00;98243.72;5025045;28;20048;-47
2023/03/28 07:08:11;;;;;;;5.68;1.73;;;1.70;99.90;;;0.82;100.00;98242.97;5026610;28;20032;-49
2023/03/28 07:10:39;;;;;;;5.05;1.73;;;1.80;99.90;;;0.88;100.00;98253.47;5024479;28;20037;-49
2023/03/28 07:13:06;;;;;;;5.07;1.70;;;1.90;99.90;;;0.95;100.00;98250.13;5026937;28;20312;-49
2023/03/28 07:15:32;;;;;;;4.82;1.80;;;1.90;99.90;;;1.01;100.00;98253.66;5020899;28;20036;-46
2023/03/28 07:17:58;;;;;;;6.97;1.95;;;2.00;99.90;;;1.02;100.00;98253.66;5025546;28;20032;-50
2023/03/28 07:20:24;;;;;;;11.95;2.17;;;2.00;99.90;;;1.13;100.00;98256.41;5026818;28;20044;-48
2023/03/28 07:22:50;;;;;;;4.22;2.15;;;2.10;99.90;;;1.18;100.00;98248.69;5020941;28;20034;-46
2023/03/28 07:25:17;;;;;;;7.28;2.03;;;2.10;99.90;;;1.23;100.00;98260.88;5024770;28;20060;-50
2023/03/28 07:27:42;;;;;;;9.55;2.13;;;2.20;99.90;;;1.28;100.00;98255.78;5018061;28;20493;-50
2023/03/28 07:30:09;;;;;;;6.40;2.40;;;2.30;99.90;;;1.34;100.00;98253.22;5023132;28;20033;-52
2023/03/28 07:32:35;;;;;;;7.40;2.50;;;2.30;99.90;;;1.38;100.00;98257.63;5022319;28;20148;-48
2023/03/28 07:35:02;;;;;;;5.03;1.90;;;2.30;99.90;;;1.40;100.00;98245.53;5022756;28;20392;-50
2023/03/28 07:37:28;;;;;;;5.13;1.80;;;2.40;99.90;;;1.52;100.00;98250.00;5019304;28;20496;-52
2023/03/28 07:39:55;;;;;;;6.18;2.15;;;2.40;99.90;;;1.62;100.00;98249.28;5025026;28;20067;-51
2023/03/28 07:42:22;;;;;;;8.05;2.28;;;2.50;99.90;;;1.65;100.00;98249.31;5025616;28;20055;-52
2023/03/28 07:44:47;;;;;;;5.68;2.03;;;2.60;99.90;;;1.71;100.00;98266.72;5021528;28;20029;-52
2023/03/28 07:47:13;;;;;;;7.20;1.90;;;2.70;99.90;;;1.78;100.00;98262.47;5024775;28;20029;-52
2023/03/28 07:49:39;;;;;;;8.50;2.00;;;2.70;99.90;;;1.80;100.00;98271.16;5031876;28;20127;-48
2023/03/28 07:52:05;;;;;;;10.27;2.35;;;2.70;99.90;;;1.83;100.00;98273.78;5028896;28;20033;-50
2023/03/28 07:54:32;;;;;;;5.93;2.00;;;2.80;99.90;;;1.84;100.00;98270.34;5024728;28;20401;-50
2023/03/28 07:56:58;;;;;;;11.82;2.40;;;2.80;99.90;;;1.76;100.00;98277.16;5021931;28;20032;-51
2023/03/28 07:59:25;;;;;;;6.85;1.98;;;2.70;99.90;;;1.74;100.00;98276.28;5030988;28;20460;-51
2023/03/28 08:01:51;;;;;;;7.95;1.67;;;2.70;99.90;;;1.71;100.00;98267.59;5022504;28;20056;-50
2023/03/28 08:04:17;;;;;;;5.90;1.75;;;2.70;99.90;;;1.89;100.00;98282.53;5024485;28;20037;-48
2023/03/28 08:06:44;;;;;;;5.63;2.00;;;2.80;99.90;;;1.88;100.00;98285.13;5022391;28;20025;-50
2023/03/28 08:09:14;;;;;;;5.43;1.98;;;2.80;99.90;;;1.90;100.00;98291.19;5021974;28;20057;-51
2023/03/28 08:11:42;;;;;;;5.82;1.90;;;2.80;99.90;;;1.88;100.00;98296.41;5024515;28;20033;-47
2023/03/28 08:14:13;;;;;;;5.72;1.77;;;2.80;99.90;;;1.82;100.00;98298.91;5026217;28;20025;-50
2023/03/28 08:16:39;;;;;;;2.97;1.52;;;2.70;99.90;;;1.82;100.00;98298.91;5041383;22;20560;-40
2023/03/28 08:19:05;;;;;;;8.23;2.13;;;2.70;99.90;;;1.82;100.00;98298.06;5023749;28;20028;-39
2023/03/28 08:21:31;;;;;;;8.45;1.67;;;2.70;99.90;;;1.89;100.00;98295.53;5029282;28;20033;-38
2023/03/28 08:24:00;;;;;;;3.45;1.60;;;2.80;99.90;;;1.89;100.00;98292.06;5025078;28;20392;-38
2023/03/28 08:26:27;;;;;;;6.07;1.70;;;2.80;99.90;;;1.97;100.00;98289.56;5014186;28;20116;-40
2023/03/28 08:28:54;;;;;;;6.10;1.67;;;2.90;99.90;;;2.19;100.00;98304.56;5006606;28;20040;-39
2023/03/28 08:31:22;;;;;;;6.88;1.80;;;3.00;99.90;;;2.48;100.00;98299.66;5010372;28;20506;-38
2023/03/28 08:33:51;;;;;;;5.90;1.90;;;3.30;99.90;;;2.65;100.00;98296.31;5008346;28;20649;-39
2023/03/28 08:36:17;;;;;;;6.97;1.75;;;3.40;99.90;;;2.78;100.00;98300.78;5009101;28;20025;-39
2023/03/28 08:38:45;;;;;;;7.07;1.70;;;3.60;99.90;;;2.98;100.00;98295.75;5009305;28;20072;-39
2023/03/28 08:41:44;;;;;;;3.70;1.65;;;3.70;99.90;;;3.20;95.41;98295.91;5010220;28;20030;-39
2023/03/28 08:44:26;;;;;;;5.38;1.50;;;4.00;99.90;;;3.39;84.35;98296.84;5004672;28;20029;-38
2023/03/28 08:46:58;;;;;;;5.45;1.42;;;4.20;99.90;;;3.39;85.24;98300.38;5002062;28;20032;-38
2023/03/28 08:49:24;;;;;;;7.05;1.50;;;4.30;99.90;;;3.35;89.05;98298.56;5004915;28;20081;-38
2023/03/28 08:51:57;;;;;;;6.18;1.60;;;4.20;99.90;;;3.31;91.28;98301.19;5011277;28;20041;-39
2023/03/28 08:54:44;;;;;;;4.20;1.60;;;4.20;99.90;;;3.19;93.45;98296.75;5004098;28;20044;-38
2023/03/28 08:57:19;;;;;;;9.32;1.90;;;4.10;99.90;;;3.28;89.59;98295.94;5009591;28;20056;-38
2023/03/28 09:00:10;;;;;;;5.30;1.80;;;4.10;99.90;;;3.27;85.45;98305.50;5012086;28;20061;-39
2023/03/28 09:02:35;;;;;;;8.02;1.70;;;4.10;99.90;;;3.38;77.45;98303.81;5003241;28;20033;-38
2023/03/28 09:05:01;;;;;;;4.03;1.63;;;4.20;99.90;;;3.50;80.11;98299.53;5009969;28;20484;-38
2023/03/28 09:07:54;;;;;;;5.03;1.40;;;4.30;99.90;;;3.60;76.48;98291.75;5007442;28;20041;-38
2023/03/28 09:10:32;;;;;;;3.83;1.67;;;4.40;99.90;;;3.57;66.48;98303.91;5013787;28;20052;-39
2023/03/28 09:13:12;;;;;;;4.95;1.50;;;4.50;99.90;;;3.43;70.76;98309.09;5023605;28;21234;-38
2023/03/28 09:16:15;;;;;;;8.63;1.80;;;4.30;99.90;;;3.29;69.09;98308.13;5005833;28;20045;-39
2023/03/28 09:19:09;;;;;;;7.00;1.55;;;4.20;99.90;;;3.27;79.25;98309.81;5010127;28;20037;-38
2023/03/28 09:22:27;;;;;;;3.38;1.70;;;4.10;99.90;;;3.27;77.42;98307.22;5004273;28;20128;-38
2023/03/28 09:24:58;;;;;;;4.28;1.20;;;4.10;99.90;;;3.47;75.08;98307.38;5009087;28;20030;-38
2023/03/28 09:27:49;;;;;;;3.53;1.20;;;4.30;99.90;;;3.78;68.40;98304.03;5007803;28;20405;-39
2023/03/28 09:30:24;;;;;;;5.22;1.40;;;4.50;99.90;;;4.00;63.31;98291.97;5011187;28;20596;-39
2023/03/28 09:32:54;;;;;;;6.03;1.60;;;4.80;99.90;;;4.14;64.23;98302.44;5014333;28;20087;-39
2023/03/28 09:35:23;;;;;;;2.53;1.23;;;5.00;99.90;;;4.26;61.99;98309.44;5005047;28;20368;-39
2023/03/28 09:37:56;;;;;;;4.43;1.33;;;5.10;99.90;;;4.26;60.86;98311.19;5010538;28;20434;-39
2023/03/28 09:40:28;;;;;;;5.68;1.40;;;5.10;99.90;;;4.16;58.25;98310.25;5012574;28;20429;-39
2023/03/28 09:43:14;;;;;;;7.25;1.45;;;5.10;99.90;;;4.00;58.32;98310.22;5012674;28;20951;-39
2023/03/28 09:45:51;;;;;;;3.78;1.63;;;4.90;99.90;;;3.95;59.83;98311.94;5011442;28;20049;-39
2023/03/28 09:48:25;;;;;;;1.80;1.00;;;4.90;99.90;;;4.07;60.89;98311.09;5014298;28;20331;-39
2023/03/28 09:50:51;;;;;;;4.03;1.20;;;4.90;99.90;;;4.05;60.74;98306.75;5016355;28;20049;-38
2023/03/28 09:53:27;;;;;;;5.53;1.33;;;5.00;99.90;;;4.14;56.99;98306.78;5007653;28;20515;-39
2023/03/28 09:55:56;;;;;;;3.80;1.27;;;5.00;99.90;;;4.39;61.35;98303.34;5012578;28;20411;-38
2023/03/28 09:58:22;;;;;;;5.15;1.50;;;5.30;99.90;;;4.60;62.89;98299.06;5015083;28;20033;-38
2023/03/28 10:00:51;;;;;;;4.22;1.27;;;5.50;99.90;;;4.76;62.00;98297.34;5016542;28;20029;-38
2023/03/28 10:03:28;;;;;;;3.33;1.58;;;5.70;99.90;;;4.98;57.17;98295.59;5010865;28;21352;-38
2023/03/28 10:05:57;;;;;;;3.40;1.50;;;5.90;99.90;;;5.29;57.15;98291.22;4998177;28;20632;-39
2023/03/28 10:08:33;;;;;;;4.10;1.40;;;6.10;99.90;;;5.57;57.31;98291.16;5009329;28;20034;-40
2023/03/28 10:11:05;;;;;;;4.88;1.30;;;6.40;99.90;;;5.59;56.12;98292.00;5010818;28;20456;-40
2023/03/28 10:13:46;;;;;;;2.92;1.10;;;6.40;99.90;;;5.78;55.99;98281.47;5010846;28;20033;-41
2023/03/28 10:16:17;;;;;;;3.03;1.30;;;6.60;99.90;;;6.00;56.38;98280.56;5014239;28;20264;-40
2023/03/28 10:18:42;;;;;;;1.98;1.20;;;6.80;99.90;;;6.19;51.69;98280.44;5017108;28;20029;-40
2023/03/28 10:21:14;;;;;;;5.90;1.80;;;7.10;99.90;;;6.29;50.48;98285.63;5010000;28;20064;-40
2023/03/28 10:23:46;;;;;;;4.15;1.25;;;7.20;99.90;;;6.60;51.87;98277.56;5013495;28;20049;-40
2023/03/28 10:26:20;;;;;;;3.05;1.35;;;7.40;99.90;;;6.83;51.45;98273.91;5013474;28;20018;-41
2023/03/28 10:28:51;;;;;;;5.38;1.40;;;7.70;99.90;;;7.06;47.25;98274.59;5016355;28;20041;-40
2023/03/28 10:31:30;;;;;;;3.17;1.45;;;7.80;98.30;;;7.17;51.36;98263.13;5016371;28;20283;-40
2023/03/28 10:33:58;;;;;;;5.78;1.30;;;7.90;98.10;;;7.29;50.99;98257.78;5015305;28;20033;-40
2023/03/28 10:36:39;;;;;;;4.60;1.23;;;8.10;99.90;;;7.35;47.99;98265.56;5014286;28;20231;-40
2023/03/28 10:39:27;;;;;;;2.65;1.35;;;8.10;97.60;;;7.29;51.57;98260.41;5002627;28;20041;-40